sensor_id;sensor_type;location;lat;lon;timestamp;temperature;humidity
47336;DHT22;33068;51.990;5.926;2023-02-20T00:00:49;5.00;99.90
47336;DHT22;33068;51.990;5.926;2023-02-20T00:03:16;5.00;99.90
47336;DHT22;33068;51.990;5.926;2023-02-20T00:05:44;5.00;99.90
47336;DHT22;33068;51.990;5.926;2023-02-20T00:08:11;5.10;99.90
47336;DHT22;33068;51.990;5.926;2023-02-20T00:10:38;5.00;99.90
47336;DHT22;33068;51.990;5.926;2023-02-20T00:13:07;5.10;99.90
47336;DHT22;33068;51.990;5.926;2023-02-20T00:15:34;5.10;99.90
47336;DHT22;33068;51.990;5.926;2023-02-20T00:18:02;5.20;99.90
47336;DHT22;33068;51.990;5.926;2023-02-20T00:20:29;5.20;99.90
47336;DHT22;33068;51.990;5.926;2023-02-20T00:22:58;5.40;99.90
47336;DHT22;33068;51.990;5.926;2023-02-20T00:25:25;5.20;99.90
47336;DHT22;33068;51.990;5.926;2023-02-20T00:27:52;5.20;99.90
47336;DHT22;33068;51.990;5.926;2023-02-20T00:30:27;5.20;99.90
47336;DHT22;33068;51.990;5.926;2023-02-20T00:32:55;5.20;99.90
47336;DHT22;33068;51.990;5.926;2023-02-20T00:35:23;5.20;99.90
47336;DHT22;33068;51.990;5.926;2023-02-20T00:37:52;5.30;99.90
47336;DHT22;33068;51.990;5.926;2023-02-20T00:40:21;5.30;99.90
47336;DHT22;33068;51.990;5.926;2023-02-20T00:42:50;5.40;99.90
47336;DHT22;33068;51.990;5.926;2023-02-20T00:45:18;5.30;99.90
47336;DHT22;33068;51.990;5.926;2023-02-20T00:47:46;5.40;99.90
47336;DHT22;33068;51.990;5.926;2023-02-20T00:50:16;5.40;99.90
47336;DHT22;33068;51.990;5.926;2023-02-20T00:52:44;5.40;99.90
47336;DHT22;33068;51.990;5.926;2023-02-20T00:55:11;5.50;99.90
47336;DHT22;33068;51.990;5.926;2023-02-20T00:57:39;5.50;99.90
47336;DHT22;33068;51.990;5.926;2023-02-20T01:00:09;5.50;99.90
47336;DHT22;33068;51.990;5.926;2023-02-20T01:02:37;5.50;99.90
47336;DHT22;33068;51.990;5.926;2023-02-20T01:05:06;5.50;99.90
47336;DHT22;33068;51.990;5.926;2023-02-20T01:07:34;5.50;99.90
47336;DHT22;33068;51.990;5.926;2023-02-20T01:10:02;5.50;99.90
47336;DHT22;33068;51.990;5.926;2023-02-20T01:12:31;5.50;99.90
47336;DHT22;33068;51.990;5.926;2023-02-20T01:14:58;5.40;99.90
47336;DHT22;33068;51.990;5.926;2023-02-20T01:17:31;5.40;99.90
47336;DHT22;33068;51.990;5.926;2023-02-20T01:19:58;5.50;99.90
47336;DHT22;33068;51.990;5.926;2023-02-20T01:22:26;5.50;99.90
47336;DHT22;33068;51.990;5.926;2023-02-20T01:24:54;5.50;99.90
47336;DHT22;33068;51.990;5.926;2023-02-20T01:27:21;5.50;99.90
47336;DHT22;33068;51.990;5.926;2023-02-20T01:29:51;5.40;99.90
47336;DHT22;33068;51.990;5.926;2023-02-20T01:32:19;5.50;99.90
47336;DHT22;33068;51.990;5.926;2023-02-20T01:34:46;5.40;99.90
47336;DHT22;33068;51.990;5.926;2023-02-20T01:37:15;5.40;99.90
47336;DHT22;33068;51.990;5.926;2023-02-20T01:39:46;5.40;99.90
47336;DHT22;33068;51.990;5.926;2023-02-20T01:42:19;5.30;99.90
47336;DHT22;33068;51.990;5.926;2023-02-20T01:44:48;5.40;99.90
47336;DHT22;33068;51.990;5.926;2023-02-20T01:47:17;5.40;99.90
47336;DHT22;33068;51.990;5.926;2023-02-20T01:49:48;5.30;99.90
47336;DHT22;33068;51.990;5.926;2023-02-20T01:52:20;5.40;99.90
47336;DHT22;33068;51.990;5.926;2023-02-20T01:54:55;5.40;99.90
47336;DHT22;33068;51.990;5.926;2023-02-20T01:57:25;5.30;99.90
47336;DHT22;33068;51.990;5.926;2023-02-20T01:59:58;5.10;99.90
47336;DHT22;33068;51.990;5.926;2023-02-20T02:02:29;5.40;99.90
47336;DHT22;33068;51.990;5.926;2023-02-20T02:05:03;5.40;99.90
47336;DHT22;33068;51.990;5.926;2023-02-20T02:07:30;5.30;99.90
47336;DHT22;33068;51.990;5.926;2023-02-20T02:10:06;5.30;99.90
47336;DHT22;33068;51.990;5.926;2023-02-20T02:12:34;5.30;99.90
47336;DHT22;33068;51.990;5.926;2023-02-20T02:15:02;4.90;99.90
47336;DHT22;33068;51.990;5.926;2023-02-20T02:17:57;5.30;99.90
47336;DHT22;33068;51.990;5.926;2023-02-20T02:24:00;5.30;99.90
47336;DHT22;33068;51.990;5.926;2023-02-20T02:36:21;5.30;99.90
47336;DHT22;33068;51.990;5.926;2023-02-20T02:38:58;5.30;99.90
47336;DHT22;33068;51.990;5.926;2023-02-20T02:41:37;5.00;99.90
47336;DHT22;33068;51.990;5.926;2023-02-20T02:44:11;5.40;99.90
47336;DHT22;33068;51.990;5.926;2023-02-20T02:46:42;5.50;99.90
47336;DHT22;33068;51.990;5.926;2023-02-20T02:49:17;5.50;99.90
47336;DHT22;33068;51.990;5.926;2023-02-20T02:51:47;5.80;99.90
47336;DHT22;33068;51.990;5.926;2023-02-20T02:54:16;5.60;99.90
47336;DHT22;33068;51.990;5.926;2023-02-20T02:56:46;5.70;99.90
47336;DHT22;33068;51.990;5.926;2023-02-20T02:59:18;5.70;99.90
47336;DHT22;33068;51.990;5.926;2023-02-20T03:01:50;5.80;99.90
47336;DHT22;33068;51.990;5.926;2023-02-20T03:04:18;5.80;99.90
47336;DHT22;33068;51.990;5.926;2023-02-20T03:06:51;5.80;99.90
47336;DHT22;33068;51.990;5.926;2023-02-20T03:09:23;5.80;99.90
47336;DHT22;33068;51.990;5.926;2023-02-20T03:11:53;5.80;99.90
47336;DHT22;33068;51.990;5.926;2023-02-20T03:14:27;5.90;99.90
47336;DHT22;33068;51.990;5.926;2023-02-20T03:17:22;5.90;99.90
47336;DHT22;33068;51.990;5.926;2023-02-20T03:19:55;5.90;99.90
47336;DHT22;33068;51.990;5.926;2023-02-20T03:22:27;5.90;99.90
47336;DHT22;33068;51.990;5.926;2023-02-20T03:24:59;6.40;99.90
47336;DHT22;33068;51.990;5.926;2023-02-20T03:27:38;5.90;99.90
47336;DHT22;33068;51.990;5.926;2023-02-20T03:30:13;5.90;99.90
47336;DHT22;33068;51.990;5.926;2023-02-20T03:32:43;6.00;99.90
47336;DHT22;33068;51.990;5.926;2023-02-20T03:35:33;6.00;99.90
47336;DHT22;33068;51.990;5.926;2023-02-20T03:38:22;6.00;99.90
47336;DHT22;33068;51.990;5.926;2023-02-20T03:41:15;6.00;99.90
47336;DHT22;33068;51.990;5.926;2023-02-20T03:44:03;6.00;99.90
47336;DHT22;33068;51.990;5.926;2023-02-20T03:46:37;6.00;99.90
47336;DHT22;33068;51.990;5.926;2023-02-20T03:49:09;6.00;99.90
47336;DHT22;33068;51.990;5.926;2023-02-20T03:51:40;6.00;99.90
47336;DHT22;33068;51.990;5.926;2023-02-20T03:54:18;6.00;99.90
47336;DHT22;33068;51.990;5.926;2023-02-20T03:56:49;6.10;99.90
47336;DHT22;33068;51.990;5.926;2023-02-20T03:59:22;6.00;99.90
47336;DHT22;33068;51.990;5.926;2023-02-20T04:01:53;6.00;99.90
47336;DHT22;33068;51.990;5.926;2023-02-20T04:04:25;6.00;99.90
47336;DHT22;33068;51.990;5.926;2023-02-20T04:06:55;6.00;99.90
47336;DHT22;33068;51.990;5.926;2023-02-20T04:09:27;6.10;99.90
47336;DHT22;33068;51.990;5.926;2023-02-20T04:12:01;6.20;99.90
47336;DHT22;33068;51.990;5.926;2023-02-20T04:14:31;6.10;99.90
47336;DHT22;33068;51.990;5.926;2023-02-20T04:17:02;6.50;99.90
47336;DHT22;33068;51.990;5.926;2023-02-20T04:19:34;6.20;99.90
47336;DHT22;33068;51.990;5.926;2023-02-20T04:22:06;6.30;99.90
47336;DHT22;33068;51.990;5.926;2023-02-20T04:24:41;6.30;99.90
47336;DHT22;33068;51.990;5.926;2023-02-20T04:27:10;6.30;99.90
47336;DHT22;33068;51.990;5.926;2023-02-20T04:29:45;6.00;99.90
47336;DHT22;33068;51.990;5.926;2023-02-20T04:32:13;6.10;99.90
47336;DHT22;33068;51.990;5.926;2023-02-20T04:34:40;6.40;99.90
47336;DHT22;33068;51.990;5.926;2023-02-20T04:37:11;6.40;99.90
47336;DHT22;33068;51.990;5.926;2023-02-20T04:39:41;6.50;99.90
47336;DHT22;33068;51.990;5.926;2023-02-20T04:42:09;6.50;99.90
47336;DHT22;33068;51.990;5.926;2023-02-20T04:44:38;6.50;99.90
47336;DHT22;33068;51.990;5.926;2023-02-20T04:47:12;6.50;99.90
47336;DHT22;33068;51.990;5.926;2023-02-20T04:49:39;6.50;99.90
47336;DHT22;33068;51.990;5.926;2023-02-20T04:52:09;6.60;99.90
47336;DHT22;33068;51.990;5.926;2023-02-20T04:54:37;6.50;99.90
47336;DHT22;33068;51.990;5.926;2023-02-20T04:57:07;6.50;99.90
47336;DHT22;33068;51.990;5.926;2023-02-20T04:59:35;6.50;99.90
47336;DHT22;33068;51.990;5.926;2023-02-20T05:02:03;6.60;99.90
47336;DHT22;33068;51.990;5.926;2023-02-20T05:04:31;6.60;99.90
47336;DHT22;33068;51.990;5.926;2023-02-20T05:06:58;6.60;99.90
47336;DHT22;33068;51.990;5.926;2023-02-20T05:09:26;6.60;99.90
47336;DHT22;33068;51.990;5.926;2023-02-20T05:11:55;6.60;99.90
47336;DHT22;33068;51.990;5.926;2023-02-20T05:14:24;6.60;99.90
47336;DHT22;33068;51.990;5.926;2023-02-20T05:16:51;6.70;99.90
47336;DHT22;33068;51.990;5.926;2023-02-20T05:19:18;6.90;99.90
47336;DHT22;33068;51.990;5.926;2023-02-20T05:21:47;6.70;99.90
47336;DHT22;33068;51.990;5.926;2023-02-20T05:24:32;6.70;99.90
47336;DHT22;33068;51.990;5.926;2023-02-20T05:27:01;6.80;99.90
47336;DHT22;33068;51.990;5.926;2023-02-20T05:29:31;6.80;99.90
47336;DHT22;33068;51.990;5.926;2023-02-20T05:31:58;6.80;99.90
47336;DHT22;33068;51.990;5.926;2023-02-20T05:34:25;6.80;99.90
47336;DHT22;33068;51.990;5.926;2023-02-20T05:36:53;6.70;99.90
47336;DHT22;33068;51.990;5.926;2023-02-20T05:39:22;6.80;99.90
47336;DHT22;33068;51.990;5.926;2023-02-20T05:41:49;6.80;99.90
47336;DHT22;33068;51.990;5.926;2023-02-20T05:44:16;6.90;99.90
47336;DHT22;33068;51.990;5.926;2023-02-20T05:46:45;6.90;99.90
47336;DHT22;33068;51.990;5.926;2023-02-20T05:49:13;6.90;99.90
47336;DHT22;33068;51.990;5.926;2023-02-20T05:51:40;6.90;99.90
47336;DHT22;33068;51.990;5.926;2023-02-20T05:54:07;7.00;99.90
47336;DHT22;33068;51.990;5.926;2023-02-20T05:56:41;7.00;99.90
47336;DHT22;33068;51.990;5.926;2023-02-20T05:59:08;7.00;99.90
47336;DHT22;33068;51.990;5.926;2023-02-20T06:01:36;7.00;99.90
47336;DHT22;33068;51.990;5.926;2023-02-20T06:04:05;7.00;99.90
47336;DHT22;33068;51.990;5.926;2023-02-20T06:06:33;7.00;99.90
47336;DHT22;33068;51.990;5.926;2023-02-20T06:09:03;7.00;99.90
47336;DHT22;33068;51.990;5.926;2023-02-20T06:11:32;7.10;99.90
47336;DHT22;33068;51.990;5.926;2023-02-20T06:14:01;7.20;99.90
47336;DHT22;33068;51.990;5.926;2023-02-20T06:16:30;7.10;99.90
47336;DHT22;33068;51.990;5.926;2023-02-20T06:18:57;7.10;99.90
47336;DHT22;33068;51.990;5.926;2023-02-20T06:21:27;7.20;99.90
47336;DHT22;33068;51.990;5.926;2023-02-20T06:24:00;7.20;99.90
47336;DHT22;33068;51.990;5.926;2023-02-20T06:26:29;7.20;99.90
47336;DHT22;33068;51.990;5.926;2023-02-20T06:28:59;7.20;99.90
47336;DHT22;33068;51.990;5.926;2023-02-20T06:31:27;7.20;99.90
47336;DHT22;33068;51.990;5.926;2023-02-20T06:33:55;7.30;99.90
47336;DHT22;33068;51.990;5.926;2023-02-20T06:36:39;7.40;99.90
47336;DHT22;33068;51.990;5.926;2023-02-20T06:39:16;7.30;99.90
47336;DHT22;33068;51.990;5.926;2023-02-20T06:41:44;7.30;99.90
47336;DHT22;33068;51.990;5.926;2023-02-20T06:44:24;7.30;99.90
47336;DHT22;33068;51.990;5.926;2023-02-20T06:46:51;7.30;99.90
47336;DHT22;33068;51.990;5.926;2023-02-20T06:49:21;7.40;99.90
47336;DHT22;33068;51.990;5.926;2023-02-20T06:51:53;7.40;99.90
47336;DHT22;33068;51.990;5.926;2023-02-20T06:54:22;7.30;99.90
47336;DHT22;33068;51.990;5.926;2023-02-20T06:56:52;7.20;99.90
47336;DHT22;33068;51.990;5.926;2023-02-20T06:59:19;7.40;99.90
47336;DHT22;33068;51.990;5.926;2023-02-20T07:01:48;7.40;99.90
47336;DHT22;33068;51.990;5.926;2023-02-20T07:04:17;7.40;99.90
47336;DHT22;33068;51.990;5.926;2023-02-20T07:06:45;7.40;99.90
47336;DHT22;33068;51.990;5.926;2023-02-20T07:09:15;7.50;99.90
47336;DHT22;33068;51.990;5.926;2023-02-20T07:11:44;7.50;99.90
47336;DHT22;33068;51.990;5.926;2023-02-20T07:14:13;7.50;99.90
47336;DHT22;33068;51.990;5.926;2023-02-20T07:16:41;7.50;99.90
47336;DHT22;33068;51.990;5.926;2023-02-20T07:19:12;7.50;99.90
47336;DHT22;33068;51.990;5.926;2023-02-20T07:21:39;7.50;99.90
47336;DHT22;33068;51.990;5.926;2023-02-20T07:24:09;7.50;99.90
47336;DHT22;33068;51.990;5.926;2023-02-20T07:26:39;7.50;99.90
47336;DHT22;33068;51.990;5.926;2023-02-20T07:29:11;7.60;99.90
47336;DHT22;33068;51.990;5.926;2023-02-20T07:31:39;7.60;99.90
47336;DHT22;33068;51.990;5.926;2023-02-20T07:34:11;7.60;99.90
47336;DHT22;33068;51.990;5.926;2023-02-20T07:36:53;7.60;99.90
47336;DHT22;33068;51.990;5.926;2023-02-20T07:39:28;7.60;99.90
47336;DHT22;33068;51.990;5.926;2023-02-20T07:42:09;7.60;99.90
47336;DHT22;33068;51.990;5.926;2023-02-20T07:44:51;7.90;99.90
47336;DHT22;33068;51.990;5.926;2023-02-20T07:47:21;7.70;99.90
47336;DHT22;33068;51.990;5.926;2023-02-20T07:49:56;7.70;99.90
47336;DHT22;33068;51.990;5.926;2023-02-20T07:52:28;7.70;99.90
47336;DHT22;33068;51.990;5.926;2023-02-20T07:54:58;7.70;99.90
47336;DHT22;33068;51.990;5.926;2023-02-20T07:57:35;7.40;99.90
47336;DHT22;33068;51.990;5.926;2023-02-20T08:00:07;7.80;99.90
47336;DHT22;33068;51.990;5.926;2023-02-20T08:02:49;7.70;99.90
47336;DHT22;33068;51.990;5.926;2023-02-20T08:05:21;7.80;99.90
47336;DHT22;33068;51.990;5.926;2023-02-20T08:07:57;7.80;99.90
47336;DHT22;33068;51.990;5.926;2023-02-20T08:10:27;7.80;99.90
47336;DHT22;33068;51.990;5.926;2023-02-20T08:13:10;7.80;99.90
47336;DHT22;33068;51.990;5.926;2023-02-20T08:15:50;7.80;99.90
47336;DHT22;33068;51.990;5.926;2023-02-20T08:18:25;7.90;99.90
47336;DHT22;33068;51.990;5.926;2023-02-20T08:20:53;7.90;99.90
47336;DHT22;33068;51.990;5.926;2023-02-20T08:23:22;7.90;99.90
47336;DHT22;33068;51.990;5.926;2023-02-20T08:26:04;7.90;99.90
47336;DHT22;33068;51.990;5.926;2023-02-20T08:28:34;7.90;99.90
47336;DHT22;33068;51.990;5.926;2023-02-20T08:31:01;7.90;99.90
47336;DHT22;33068;51.990;5.926;2023-02-20T08:33:29;7.90;99.90
47336;DHT22;33068;51.990;5.926;2023-02-20T08:35:59;7.90;99.90
47336;DHT22;33068;51.990;5.926;2023-02-20T08:38:39;7.90;99.90
47336;DHT22;33068;51.990;5.926;2023-02-20T08:41:11;8.00;99.90
47336;DHT22;33068;51.990;5.926;2023-02-20T08:43:49;8.00;99.90
47336;DHT22;33068;51.990;5.926;2023-02-20T08:46:19;8.00;99.90
47336;DHT22;33068;51.990;5.926;2023-02-20T08:49:03;8.00;99.90
47336;DHT22;33068;51.990;5.926;2023-02-20T08:51:33;8.00;99.90
47336;DHT22;33068;51.990;5.926;2023-02-20T08:54:06;8.00;99.90
47336;DHT22;33068;51.990;5.926;2023-02-20T08:56:34;8.20;99.90
47336;DHT22;33068;51.990;5.926;2023-02-20T08:59:12;8.20;99.90
47336;DHT22;33068;51.990;5.926;2023-02-20T09:01:40;8.20;99.90
47336;DHT22;33068;51.990;5.926;2023-02-20T09:04:07;8.20;99.90
47336;DHT22;33068;51.990;5.926;2023-02-20T09:06:38;8.30;99.90
47336;DHT22;33068;51.990;5.926;2023-02-20T09:09:06;8.30;99.90
47336;DHT22;33068;51.990;5.926;2023-02-20T09:11:33;8.30;99.90
47336;DHT22;33068;51.990;5.926;2023-02-20T09:14:00;8.40;99.90
47336;DHT22;33068;51.990;5.926;2023-02-20T09:16:32;8.40;99.90
47336;DHT22;33068;51.990;5.926;2023-02-20T09:18:59;8.40;99.90
47336;DHT22;33068;51.990;5.926;2023-02-20T09:21:27;8.40;99.90
47336;DHT22;33068;51.990;5.926;2023-02-20T09:23:54;8.50;99.90
47336;DHT22;33068;51.990;5.926;2023-02-20T09:26:22;8.70;99.90
47336;DHT22;33068;51.990;5.926;2023-02-20T09:28:52;8.50;99.90
47336;DHT22;33068;51.990;5.926;2023-02-20T09:31:21;8.40;99.90
47336;DHT22;33068;51.990;5.926;2023-02-20T09:33:52;8.50;99.90
47336;DHT22;33068;51.990;5.926;2023-02-20T09:36:22;8.40;99.90
47336;DHT22;33068;51.990;5.926;2023-02-20T09:38:52;8.50;99.90
47336;DHT22;33068;51.990;5.926;2023-02-20T09:41:28;8.50;99.90
47336;DHT22;33068;51.990;5.926;2023-02-20T09:44:04;8.60;99.90
47336;DHT22;33068;51.990;5.926;2023-02-20T09:46:35;8.50;99.90
47336;DHT22;33068;51.990;5.926;2023-02-20T09:49:11;8.50;99.90
47336;DHT22;33068;51.990;5.926;2023-02-20T09:51:41;8.50;99.90
47336;DHT22;33068;51.990;5.926;2023-02-20T09:54:11;8.60;99.90
47336;DHT22;33068;51.990;5.926;2023-02-20T09:56:42;8.50;99.90
47336;DHT22;33068;51.990;5.926;2023-02-20T09:59:14;8.50;99.90
47336;DHT22;33068;51.990;5.926;2023-02-20T10:01:51;8.50;99.90
47336;DHT22;33068;51.990;5.926;2023-02-20T10:04:20;8.50;99.90
47336;DHT22;33068;51.990;5.926;2023-02-20T10:06:50;8.40;99.90
47336;DHT22;33068;51.990;5.926;2023-02-20T10:09:20;8.50;99.90
47336;DHT22;33068;51.990;5.926;2023-02-20T10:12:03;8.50;99.90
47336;DHT22;33068;51.990;5.926;2023-02-20T10:14:46;8.40;99.90
47336;DHT22;33068;51.990;5.926;2023-02-20T10:17:25;8.40;99.90
47336;DHT22;33068;51.990;5.926;2023-02-20T10:20:07;8.50;99.90
47336;DHT22;33068;51.990;5.926;2023-02-20T10:22:44;8.50;99.90
47336;DHT22;33068;51.990;5.926;2023-02-20T10:25:22;8.50;99.90
47336;DHT22;33068;51.990;5.926;2023-02-20T10:27:53;8.80;99.90
47336;DHT22;33068;51.990;5.926;2023-02-20T10:30:28;8.50;99.90
47336;DHT22;33068;51.990;5.926;2023-02-20T10:33:00;8.20;99.90
47336;DHT22;33068;51.990;5.926;2023-02-20T10:35:35;8.60;99.90
47336;DHT22;33068;51.990;5.926;2023-02-20T10:38:08;8.60;99.90
47336;DHT22;33068;51.990;5.926;2023-02-20T10:40:40;8.60;99.90
47336;DHT22;33068;51.990;5.926;2023-02-20T10:43:16;8.60;99.90
47336;DHT22;33068;51.990;5.926;2023-02-20T10:45:52;8.70;99.90
47336;DHT22;33068;51.990;5.926;2023-02-20T10:48:22;8.60;99.90
47336;DHT22;33068;51.990;5.926;2023-02-20T10:51:03;8.60;99.90
47336;DHT22;33068;51.990;5.926;2023-02-20T10:53:36;8.70;99.90
47336;DHT22;33068;51.990;5.926;2023-02-20T10:56:18;8.70;99.90
47336;DHT22;33068;51.990;5.926;2023-02-20T10:59:09;8.60;99.90
47336;DHT22;33068;51.990;5.926;2023-02-20T11:01:43;8.70;99.90
47336;DHT22;33068;51.990;5.926;2023-02-20T11:04:16;8.70;99.90
47336;DHT22;33068;51.990;5.926;2023-02-20T11:06:53;8.70;99.90
47336;DHT22;33068;51.990;5.926;2023-02-20T11:09:21;8.70;99.90
47336;DHT22;33068;51.990;5.926;2023-02-20T11:11:52;8.70;99.90
47336;DHT22;33068;51.990;5.926;2023-02-20T11:14:21;8.70;99.90
47336;DHT22;33068;51.990;5.926;2023-02-20T11:16:53;8.70;99.90
47336;DHT22;33068;51.990;5.926;2023-02-20T11:19:27;8.70;99.90
47336;DHT22;33068;51.990;5.926;2023-02-20T11:21:58;8.40;99.90
47336;DHT22;33068;51.990;5.926;2023-02-20T11:24:29;8.70;99.90
47336;DHT22;33068;51.990;5.926;2023-02-20T11:27:02;8.70;99.90
47336;DHT22;33068;51.990;5.926;2023-02-20T11:29:36;8.80;99.90
47336;DHT22;33068;51.990;5.926;2023-02-20T11:32:35;8.80;99.90
47336;DHT22;33068;51.990;5.926;2023-02-20T11:35:24;9.00;99.90
47336;DHT22;33068;51.990;5.926;2023-02-20T11:38:31;8.90;99.90
47336;DHT22;33068;51.990;5.926;2023-02-20T11:41:18;8.90;99.90
47336;DHT22;33068;51.990;5.926;2023-02-20T11:47:17;8.80;99.90
47336;DHT22;33068;51.990;5.926;2023-02-20T11:49:49;8.80;99.90
47336;DHT22;33068;51.990;5.926;2023-02-20T11:52:36;9.00;99.90
47336;DHT22;33068;51.990;5.926;2023-02-20T11:55:19;8.80;99.90
47336;DHT22;33068;51.990;5.926;2023-02-20T11:57:56;8.80;99.90
47336;DHT22;33068;51.990;5.926;2023-02-20T12:00:42;8.80;99.90
47336;DHT22;33068;51.990;5.926;2023-02-20T12:03:13;8.80;99.90
47336;DHT22;33068;51.990;5.926;2023-02-20T12:05:51;8.90;99.90
47336;DHT22;33068;51.990;5.926;2023-02-20T12:08:50;8.80;99.90
47336;DHT22;33068;51.990;5.926;2023-02-20T12:11:21;8.90;99.90
47336;DHT22;33068;51.990;5.926;2023-02-20T12:13:52;8.90;99.90
47336;DHT22;33068;51.990;5.926;2023-02-20T12:16:28;8.90;99.90
47336;DHT22;33068;51.990;5.926;2023-02-20T12:19:02;8.90;99.90
47336;DHT22;33068;51.990;5.926;2023-02-20T12:21:42;8.90;99.90
47336;DHT22;33068;51.990;5.926;2023-02-20T12:24:35;9.00;99.90
47336;DHT22;33068;51.990;5.926;2023-02-20T12:27:30;9.00;99.90
47336;DHT22;33068;51.990;5.926;2023-02-20T12:30:26;9.00;99.90
47336;DHT22;33068;51.990;5.926;2023-02-20T12:33:05;9.00;99.90
47336;DHT22;33068;51.990;5.926;2023-02-20T12:35:51;8.90;99.90
47336;DHT22;33068;51.990;5.926;2023-02-20T12:38:40;9.00;99.90
47336;DHT22;33068;51.990;5.926;2023-02-20T12:41:32;9.00;99.90
47336;DHT22;33068;51.990;5.926;2023-02-20T12:47:28;9.00;99.90
47336;DHT22;33068;51.990;5.926;2023-02-20T12:50:18;9.10;99.90
47336;DHT22;33068;51.990;5.926;2023-02-20T12:52:57;9.10;99.90
47336;DHT22;33068;51.990;5.926;2023-02-20T12:55:32;9.10;99.90
47336;DHT22;33068;51.990;5.926;2023-02-20T12:58:13;9.10;99.90
47336;DHT22;33068;51.990;5.926;2023-02-20T13:00:46;8.90;99.90
47336;DHT22;33068;51.990;5.926;2023-02-20T13:03:18;9.20;99.90
47336;DHT22;33068;51.990;5.926;2023-02-20T13:05:49;9.20;99.90
47336;DHT22;33068;51.990;5.926;2023-02-20T13:08:22;9.20;99.90
47336;DHT22;33068;51.990;5.926;2023-02-20T13:10:55;9.30;99.90
47336;DHT22;33068;51.990;5.926;2023-02-20T13:13:25;9.30;99.90
47336;DHT22;33068;51.990;5.926;2023-02-20T13:16:00;9.30;99.90
47336;DHT22;33068;51.990;5.926;2023-02-20T13:18:38;9.20;99.90
47336;DHT22;33068;51.990;5.926;2023-02-20T13:21:10;9.30;99.90
47336;DHT22;33068;51.990;5.926;2023-02-20T13:23:41;9.30;99.90
47336;DHT22;33068;51.990;5.926;2023-02-20T13:26:47;9.30;99.90
47336;DHT22;33068;51.990;5.926;2023-02-20T13:29:18;9.20;99.90
47336;DHT22;33068;51.990;5.926;2023-02-20T13:31:47;9.30;99.90
47336;DHT22;33068;51.990;5.926;2023-02-20T13:34:40;9.30;99.90
47336;DHT22;33068;51.990;5.926;2023-02-20T13:43:30;9.30;99.90
47336;DHT22;33068;51.990;5.926;2023-02-20T13:46:17;9.30;99.90
47336;DHT22;33068;51.990;5.926;2023-02-20T13:48:51;9.30;99.90
47336;DHT22;33068;51.990;5.926;2023-02-20T13:51:35;9.30;99.90
47336;DHT22;33068;51.990;5.926;2023-02-20T13:54:26;9.40;99.90
47336;DHT22;33068;51.990;5.926;2023-02-20T13:57:15;9.40;99.90
47336;DHT22;33068;51.990;5.926;2023-02-20T13:59:42;9.40;99.90
47336;DHT22;33068;51.990;5.926;2023-02-20T14:02:16;9.40;99.90
47336;DHT22;33068;51.990;5.926;2023-02-20T14:04:57;9.40;99.90
47336;DHT22;33068;51.990;5.926;2023-02-20T14:07:32;9.40;99.90
47336;DHT22;33068;51.990;5.926;2023-02-20T14:10:01;9.40;99.90
47336;DHT22;33068;51.990;5.926;2023-02-20T14:12:31;9.40;99.90
47336;DHT22;33068;51.990;5.926;2023-02-20T14:15:04;9.40;99.90
47336;DHT22;33068;51.990;5.926;2023-02-20T14:17:35;9.40;99.90
47336;DHT22;33068;51.990;5.926;2023-02-20T14:20:17;9.40;99.90
47336;DHT22;33068;51.990;5.926;2023-02-20T14:22:49;9.40;99.90
47336;DHT22;33068;51.990;5.926;2023-02-20T14:25:33;9.40;99.90
47336;DHT22;33068;51.990;5.926;2023-02-20T14:28:12;9.40;99.90
47336;DHT22;33068;51.990;5.926;2023-02-20T14:30:43;9.40;99.90
47336;DHT22;33068;51.990;5.926;2023-02-20T14:33:20;9.40;99.90
47336;DHT22;33068;51.990;5.926;2023-02-20T14:39:06;9.40;99.90
47336;DHT22;33068;51.990;5.926;2023-02-20T14:41:49;9.50;99.90
47336;DHT22;33068;51.990;5.926;2023-02-20T14:44:18;9.50;99.90
47336;DHT22;33068;51.990;5.926;2023-02-20T14:46:49;9.50;99.90
47336;DHT22;33068;51.990;5.926;2023-02-20T14:49:23;9.40;99.90
47336;DHT22;33068;51.990;5.926;2023-02-20T14:51:51;9.40;99.90
47336;DHT22;33068;51.990;5.926;2023-02-20T14:54:24;9.40;99.90
47336;DHT22;33068;51.990;5.926;2023-02-20T14:56:54;9.40;99.90
47336;DHT22;33068;51.990;5.926;2023-02-20T14:59:23;9.40;99.90
47336;DHT22;33068;51.990;5.926;2023-02-20T15:01:51;9.40;99.90
47336;DHT22;33068;51.990;5.926;2023-02-20T15:04:26;9.40;99.90
47336;DHT22;33068;51.990;5.926;2023-02-20T15:07:01;9.40;99.90
47336;DHT22;33068;51.990;5.926;2023-02-20T15:09:40;9.30;99.90
47336;DHT22;33068;51.990;5.926;2023-02-20T15:12:18;9.30;99.90
47336;DHT22;33068;51.990;5.926;2023-02-20T15:14:53;9.20;99.90
47336;DHT22;33068;51.990;5.926;2023-02-20T15:17:24;9.10;99.90
47336;DHT22;33068;51.990;5.926;2023-02-20T15:19:54;9.10;99.90
47336;DHT22;33068;51.990;5.926;2023-02-20T15:22:25;9.10;99.90
47336;DHT22;33068;51.990;5.926;2023-02-20T15:25:11;9.10;99.90
47336;DHT22;33068;51.990;5.926;2023-02-20T15:28:02;9.10;99.90
47336;DHT22;33068;51.990;5.926;2023-02-20T15:30:32;9.10;99.90
47336;DHT22;33068;51.990;5.926;2023-02-20T15:33:08;9.10;99.90
47336;DHT22;33068;51.990;5.926;2023-02-20T15:35:35;9.10;99.90
47336;DHT22;33068;51.990;5.926;2023-02-20T15:38:04;9.10;99.90
47336;DHT22;33068;51.990;5.926;2023-02-20T15:40:36;9.00;99.90
47336;DHT22;33068;51.990;5.926;2023-02-20T15:43:07;9.10;99.90
47336;DHT22;33068;51.990;5.926;2023-02-20T15:45:42;9.00;99.90
47336;DHT22;33068;51.990;5.926;2023-02-20T15:48:13;9.00;99.90
47336;DHT22;33068;51.990;5.926;2023-02-20T15:50:46;9.00;99.90
47336;DHT22;33068;51.990;5.926;2023-02-20T15:53:26;9.00;99.90
47336;DHT22;33068;51.990;5.926;2023-02-20T15:55:58;9.00;99.90
47336;DHT22;33068;51.990;5.926;2023-02-20T15:58:29;9.00;99.90
47336;DHT22;33068;51.990;5.926;2023-02-20T16:00:57;9.00;99.90
47336;DHT22;33068;51.990;5.926;2023-02-20T16:03:26;9.00;99.90
47336;DHT22;33068;51.990;5.926;2023-02-20T16:06:00;9.00;99.90
47336;DHT22;33068;51.990;5.926;2023-02-20T16:08:28;8.90;99.90
47336;DHT22;33068;51.990;5.926;2023-02-20T16:10:57;8.90;99.90
47336;DHT22;33068;51.990;5.926;2023-02-20T16:13:37;8.90;99.90
47336;DHT22;33068;51.990;5.926;2023-02-20T16:16:26;8.90;99.90
47336;DHT22;33068;51.990;5.926;2023-02-20T16:19:10;8.80;99.90
47336;DHT22;33068;51.990;5.926;2023-02-20T16:21:41;8.90;99.90
47336;DHT22;33068;51.990;5.926;2023-02-20T16:24:12;8.90;99.90
47336;DHT22;33068;51.990;5.926;2023-02-20T16:27:08;8.90;99.90
47336;DHT22;33068;51.990;5.926;2023-02-20T16:29:48;8.90;99.90
47336;DHT22;33068;51.990;5.926;2023-02-20T16:32:27;8.80;99.90
47336;DHT22;33068;51.990;5.926;2023-02-20T16:35:00;8.80;99.90
47336;DHT22;33068;51.990;5.926;2023-02-20T16:37:28;8.70;99.90
47336;DHT22;33068;51.990;5.926;2023-02-20T16:39:59;8.80;99.90
47336;DHT22;33068;51.990;5.926;2023-02-20T16:42:36;8.80;99.90
47336;DHT22;33068;51.990;5.926;2023-02-20T16:45:05;8.80;99.90
47336;DHT22;33068;51.990;5.926;2023-02-20T16:47:33;8.70;99.90
47336;DHT22;33068;51.990;5.926;2023-02-20T16:50:04;8.80;99.90
47336;DHT22;33068;51.990;5.926;2023-02-20T16:52:36;8.70;99.90